Погода Миранти-ду-Паранапанемана 2 недели

Сан-Паулу, Бразилия

16 - 29 июля
  • 16июля
    Сегодня
    +15°
    +28°
    Небольшая облачность
    ВремяПогодаТемператураВлажностьДавлениеВетер, м/сВероятность осадков
    00:00Небольшая облачность+16°C93 %735 мм2.2 м/с5 %
    03:00Облачно с прояснениями+16°C92 %734 мм3.1 м/с5 %
    06:00Небольшая облачность+15°C93 %734 мм3.2 м/с5 %
    09:00Облачно с прояснениями+16°C83 %736 мм3.4 м/с5 %
    12:00Небольшая облачность+23°C62 %736 мм3.2 м/с5 %
    15:00Небольшая облачность+27°C50 %734 мм2.2 м/с5 %
    18:00Ясно и безоблачно+23°C68 %734 мм2.2 м/с5 %
    21:00Ясно и безоблачно+20°C86 %735 мм2.4 м/с5 %
  • 17июля
    Среда
    +15°
    +28°
    Ясно и безоблачно
    ВремяПогодаТемператураВлажностьДавлениеВетер, м/сВероятность осадков
    00:00Практически безоблачно+18°C87 %735 мм2.9 м/с5 %
    03:00Ясно и безоблачно+17°C88 %735 мм3.6 м/с5 %
    06:00Ясно и безоблачно+16°C93 %735 мм3.1 м/с5 %
    09:00Ясно и безоблачно+17°C83 %737 мм2.9 м/с5 %
    12:00Ясно и безоблачно+24°C60 %736 мм2.1 м/с5 %
    15:00Ясно и безоблачно+27°C45 %734 мм0.8 м/с5 %
    18:00Ясно и безоблачно+23°C66 %734 мм2.3 м/с5 %
    21:00Ясно и безоблачно+19°C79 %734 мм2.3 м/с5 %
  • 18июля
    Четверг
    +15°
    +29°
    Ясно и безоблачно
    ВремяПогодаТемператураВлажностьДавлениеВетер, м/сВероятность осадков
    00:00Ясно и безоблачно+17°C81 %733 мм2.2 м/с5 %
    03:00Ясно и безоблачно+16°C81 %733 мм2.1 м/с5 %
    06:00Ясно и безоблачно+16°C90 %733 мм2.5 м/с5 %
    09:00Ясно и безоблачно+19°C78 %735 мм2.4 м/с5 %
    12:00Ясно и безоблачно+26°C50 %735 мм3.2 м/с5 %
    15:00Ясно и безоблачно+29°C40 %733 мм2.0 м/с5 %
    18:00Ясно и безоблачно+24°C60 %733 мм2.2 м/с5 %
    21:00Ясно и безоблачно+21°C67 %733 мм2.6 м/с5 %
  • 19июля
    Пятница
    +15°
    +29°
    Ясно и безоблачно
    ВремяПогодаТемператураВлажностьДавлениеВетер, м/сВероятность осадков
    00:00Ясно и безоблачно+19°C69 %734 мм2.5 м/с5 %
    03:00Ясно и безоблачно+17°C72 %733 мм2.8 м/с5 %
    06:00Ясно и безоблачно+16°C75 %734 мм3.4 м/с5 %
    09:00Ясно и безоблачно+18°C71 %736 мм3.4 м/с5 %
    12:00Ясно и безоблачно+26°C54 %736 мм3.1 м/с5 %
    15:00Ясно и безоблачно+29°C43 %734 мм2.3 м/с5 %
    18:00Ясно и безоблачно+25°C63 %734 мм2.6 м/с5 %
    21:00Ясно и безоблачно+21°C78 %735 мм2.5 м/с5 %
  • 20июля
    Суббота
    +15°
    +29°
    Ясно и безоблачно
    ВремяПогодаТемператураВлажностьДавлениеВетер, м/сВероятность осадков
    00:00Ясно и безоблачно+19°C79 %735 мм2.5 м/с5 %
    03:00Ясно и безоблачно+17°C84 %734 мм2.5 м/с5 %
    06:00Ясно и безоблачно+15°C87 %734 мм2.6 м/с5 %
    09:00Ясно и безоблачно+18°C79 %736 мм2.4 м/с5 %
    12:00Ясно и безоблачно+26°C50 %736 мм2.1 м/с5 %
    15:00Ясно и безоблачно+29°C39 %734 мм1.1 м/с5 %
    18:00Ясно и безоблачно+24°C58 %733 мм2.1 м/с5 %
    21:00Ясно и безоблачно+20°C71 %733 мм2.2 м/с5 %
Мы используем cookies
Соглашаюсь